ADDS METAR Data INFO
IDs: Format: Raw Decoded Include TAF

Data at: 1957 UTC 18 Feb 2018

KOVE 181953Z AUTO VRB04KT 10SM CLR 15/02 A2991 RMK AO2 SLP130 T01500022
KOVE 181853Z AUTO 16010KT 10SM CLR 13/07 A2993 RMK AO2 SLP135 T01330067
KOVE 181753Z AUTO 16015KT 10SM CLR 12/07 A2994 RMK AO2 SLP139 T01220067 10122 20083 51009
KOVE 181653Z AUTO 16014KT 10SM FEW014 11/07 A2994 RMK AO2 SLP139 T01110072
KOVE 181553Z AUTO 14011KT 10SM CLR 09/07 A2993 RMK AO2 SLP135 T00940072
KOVE 181453Z AUTO 14008KT 10SM FEW010 08/07 A2991 RMK AO2 SLP130 T00830072 53007
KOVE 181353Z AUTO 15010KT 10SM CLR 09/07 A2990 RMK AO2 SLP126 T00940072
KOVE 181253Z AUTO 15013KT 10SM CLR 10/07 A2989 RMK AO2 SLP123 T01000067
KOVE 181153Z AUTO 16007G19KT 10SM CLR 11/06 A2989 RMK AO2 PRESRR SLP123 T01110056 10122 20100 56013
KOVE 181053Z AUTO 15015KT 10SM SCT095 12/05 A2989 RMK AO2 SLP124 T01170050
KOVE 180953Z AUTO 12007KT 10SM CLR 11/04 A2992 RMK AO2 SLP132 T01060039
KOVE 180853Z AUTO 13009KT 10SM CLR 12/04 A2993 RMK AO2 SLP136 T01170039 58017
KOVE 180753Z AUTO 11006KT 10SM CLR 12/04 A2994 RMK AO2 SLP141 T01170044 402000033
KOVE 180653Z AUTO 07007KT 10SM CLR 12/04 A2996 RMK AO2 SLP148 T01170044
KOVE 180553Z AUTO 08005KT 10SM CLR 12/05 A2998 RMK AO2 SLP153 T01170050 10194 20111 58012
KOVE 180453Z AUTO 09006KT 10SM CLR 13/05 A2999 RMK AO2 SLP157 T01280050
KOVE 180353Z AUTO 07005KT 10SM CLR 13/05 A3000 RMK AO2 SLP162 T01280050
KOVE 180253Z AUTO 13005KT 10SM CLR 13/06 A3001 RMK AO2 SLP166 T01330056 56015
KOVE 180153Z AUTO 15007KT 10SM CLR 16/05 A3002 RMK AO2 SLP168 T01560050
KOVE 180053Z AUTO 15008KT 10SM CLR 18/04 A3004 RMK AO2 SLP174 T01830044
KOVE 172353Z AUTO 16010KT 10SM CLR 19/03 A3006 RMK AO2 SLP180 T01940033 10200 20139 56025
KOVE 172253Z AUTO 17007KT 10SM CLR 20/02 A3008 RMK AO2 SLP188 T02000022
KOVE 172153Z AUTO 17009KT 130V200 10SM CLR 19/02 A3010 RMK AO2 SLP193 T01940017
KOVE 172053Z AUTO 15005KT 10SM CLR 18/03 A3013 RMK AO2 SLP205 T01830028 58020
KOVE 171953Z AUTO 19003KT 10SM CLR 16/04 A3017 RMK AO2 SLP218 T01610044
KOVE 171853Z AUTO VRB03KT 10SM CLR 14/05 A3019 RMK AO2 SLP225 T01440050
KOVE 171753Z AUTO VRB04KT 10SM CLR 14/04 A3019 RMK AO2 SLP226 T01390039 10139 20033 53005
KOVE 171653Z AUTO 14003KT 10SM CLR 10/04 A3018 RMK AO2 SLP222 T01000039
KOVE 171553Z AUTO 00000KT 10SM CLR 07/03 A3019 RMK AO2 SLP224 T00670033
KOVE 171453Z AUTO 00000KT 10SM CLR 03/01 A3018 RMK AO2 SLP222 T00330011 55001
KOVE 171353Z AUTO 17003KT 10SM CLR 06/02 A3017 RMK AO2 SLP218 T00560017
KOVE 171253Z AUTO 11004KT 10SM CLR 06/03 A3017 RMK AO2 SLP219 T00610028
KOVE 171153Z AUTO 06004KT 10SM CLR 06/02 A3018 RMK AO2 SLP222 T00610022 10089 20050 58001
KOVE 171053Z AUTO 07003KT 10SM CLR 07/03 A3018 RMK AO2 SLP223 T00670028
KOVE 170953Z AUTO 09004KT 10SM CLR 06/02 A3019 RMK AO2 SLP224 T00610017
KOVE 170853Z AUTO 10003KT 10SM CLR 07/02 A3018 RMK AO2 SLP223 T00670017 50003